Date,TemperatureHighF,TemperatureAvgF,TemperatureLowF,DewpointHighF,DewpointAvgF,DewpointLowF,HumidityHigh,HumidityAvg,HumidityLow,PressureMaxIn,PressureMinIn,WindSpeedMaxMPH,WindSpeedAvgMPH,GustSpeedMaxMPH,PrecipitationSumIn
2013-2-1,55.2,34.8,22.6,34.8,26.6,22.2,98,77,36,30.56,30.47,7,1,7,0.00
2013-2-2,53.8,34.0,20.7,39.2,26.5,20.0,98,78,39,30.59,30.47,6,0,6,0.00
2013-2-3,57.7,38.5,20.8,33.7,25.1,19.9,98,64,29,30.47,30.36,10,1,10,0.00
2013-2-4,54.0,41.1,31.5,27.3,25.0,19.7,78,55,33,30.36,30.18,7,0,7,0.00
2013-2-5,50.2,39.4,29.8,27.9,23.2,16.0,80,53,37,30.27,30.12,17,3,17,0.00
2013-2-6,49.5,39.3,31.1,25.4,21.7,18.8,71,50,37,30.30,30.12,11,3,11,0.00
2013-2-7,43.0,34.4,24.4,28.7,21.0,16.6,87,60,41,30.27,30.12,9,2,9,0.00
2013-2-8,39.9,28.7,17.1,28.7,18.5,12.9,98,69,39,30.36,30.27,16,2,16,0.00
2013-2-9,44.8,30.1,17.2,25.2,20.4,14.0,92,70,45,30.41,30.30,12,2,12,0.00
2013-2-10,46.8,32.8,21.4,30.7,21.3,14.3,98,67,37,30.44,30.39,10,1,10,0.00
2013-2-11,51.4,32.3,15.6,27.6,21.4,14.0,98,69,33,30.50,30.39,13,2,13,0.00
2013-2-12,51.4,36.8,24.1,32.7,24.9,19.7,98,66,38,30.59,30.50,16,2,16,0.00
2013-2-13,48.6,35.7,26.8,31.3,27.1,24.2,98,73,45,30.59,30.53,10,1,10,0.00
2013-2-14,55.0,36.3,19.8,37.7,27.7,19.3,98,76,39,30.65,30.59,10,1,10,0.00
2013-2-15,62.6,39.5,23.2,40.1,29.6,22.7,98,74,34,30.65,30.44,10,1,10,0.00
2013-2-16,56.3,39.3,24.4,31.6,24.5,17.3,98,59,34,30.47,30.33,16,3,16,0.00
2013-2-17,48.4,30.0,17.1,26.8,17.9,12.3,96,66,30,30.39,30.27,9,1,9,0.00
2013-2-18,41.5,30.0,19.4,23.1,18.7,15.6,90,66,40,30.27,29.97,12,2,12,0.00
2013-2-19,43.7,28.9,16.3,29.7,19.7,13.8,92,72,39,30.15,29.91,12,2,12,0.00
2013-2-20,45.3,31.0,18.5,24.2,19.9,15.8,98,67,37,30.24,30.15,12,2,12,0.00
2013-2-21,41.2,32.7,21.2,25.6,20.6,17.1,98,64,40,30.33,30.24,12,2,12,0.00
2013-2-22,45.9,36.9,26.8,33.3,25.3,20.8,95,64,45,30.33,30.09,21,5,21,0.00
2013-2-23,40.3,29.1,14.5,24.8,18.8,13.4,98,69,40,30.53,30.21,18,3,18,0.04
2013-2-24,50.4,32.4,13.6,27.8,19.7,11.5,98,64,37,30.56,30.27,11,1,11,0.00
2013-2-25,45.1,35.6,21.9,32.4,20.3,11.0,85,56,33,30.50,30.24,19,3,19,0.00
2013-2-26,49.8,33.0,15.6,19.4,15.6,11.8,95,55,27,30.53,30.41,9,1,9,0.00
2013-2-27,51.1,38.8,25.3,28.1,20.2,11.1,62,47,38,30.53,30.44,10,2,10,0.00
2013-2-28,57.4,46.7,36.9,37.0,33.8,22.8,78,61,45,30.65,30.44,14,4,14,0.00